Time;durP1;ratioP1;P1;durP2;ratioP2;P2;SDS_P1;SDS_P2;PMS_P1;PMS_P2;Temp;Humidity;BMP_temperature;BMP_pressure;BME280_temperature;BME280_humidity;BME280_pressure;Samples;Min_cycle;Max_cycle;Signal;HPM_P1;HPM_P2
2023/10/26 00:01:23;;;;;;;10.03;9.13;;;10.80;99.90;;;10.20;100.00;98618.66;5034304;28;20202;-72
2023/10/26 00:03:51;;;;;;;9.83;8.83;;;10.80;99.90;;;10.19;100.00;98622.34;5034279;28;20251;-72
2023/10/26 00:06:20;;;;;;;11.50;10.50;;;10.80;99.90;;;10.20;100.00;98615.97;5034134;28;20227;-72
2023/10/26 00:08:50;;;;;;;9.57;8.77;;;10.80;99.90;;;10.19;100.00;98617.00;5034176;28;20202;-72
2023/10/26 00:11:18;;;;;;;8.97;8.17;;;10.80;99.90;;;10.23;100.00;98615.56;5034076;28;20234;-72
2023/10/26 00:13:46;;;;;;;10.07;9.07;;;10.90;99.90;;;10.19;100.00;98619.66;5033938;28;20222;-72
2023/10/26 00:16:14;;;;;;;10.97;9.87;;;10.80;99.90;;;10.16;100.00;98618.25;5034029;28;20587;-72
2023/10/26 00:18:42;;;;;;;10.07;9.10;;;10.80;99.90;;;10.15;100.00;98613.91;5033966;28;20245;-72
2023/10/26 00:21:11;;;;;;;9.40;8.10;;;10.80;99.90;;;10.15;100.00;98621.94;5033998;28;20209;-72
2023/10/26 00:23:39;;;;;;;10.50;9.50;;;10.80;99.90;;;10.15;100.00;98613.09;5033567;28;20207;-72
2023/10/26 00:26:08;;;;;;;9.60;8.83;;;10.80;99.90;;;10.16;100.00;98620.09;5034044;28;20317;-72
2023/10/26 00:28:37;;;;;;;10.97;9.57;;;10.80;99.90;;;10.16;100.00;98622.75;5033842;28;20302;-72
2023/10/26 00:31:05;;;;;;;9.83;8.93;;;10.80;99.90;;;10.18;100.00;98613.50;5033946;28;20322;-72
2023/10/26 00:33:33;;;;;;;9.40;8.60;;;10.80;99.90;;;10.16;100.00;98622.75;5033776;28;20207;-72
2023/10/26 00:36:01;;;;;;;9.13;8.23;;;10.80;99.90;;;10.17;100.00;98619.06;5033666;28;20323;-72
2023/10/26 00:38:29;;;;;;;9.87;9.03;;;10.80;99.90;;;10.15;100.00;98619.25;5033689;28;20210;-72
2023/10/26 00:40:57;;;;;;;9.20;8.40;;;10.80;99.90;;;10.11;100.00;98628.69;5033666;28;20229;-72
2023/10/26 00:43:27;;;;;;;8.50;7.83;;;10.70;99.90;;;10.14;100.00;98616.78;5033621;28;20312;-72
2023/10/26 00:45:55;;;;;;;8.03;7.30;;;10.80;99.90;;;10.14;100.00;98616.78;5032961;28;20313;-72
2023/10/26 00:48:24;;;;;;;8.60;7.70;;;10.80;99.90;;;10.11;100.00;98617.16;5033187;28;20301;-72
2023/10/26 00:50:53;;;;;;;8.77;8.00;;;10.70;99.90;;;10.07;100.00;98616.78;5033445;28;20317;-72
2023/10/26 00:53:22;;;;;;;7.93;7.27;;;10.70;99.90;;;10.09;100.00;98614.72;5033739;28;20234;-72
2023/10/26 00:55:52;;;;;;;8.07;7.47;;;10.70;99.90;;;10.12;100.00;98618.81;5033426;28;20313;-72
2023/10/26 00:58:25;;;;;;;7.70;7.00;;;10.80;99.90;;;10.10;100.00;98610.22;5033208;28;20215;-72
2023/10/26 01:00:55;;;;;;;8.30;7.60;;;10.70;99.90;;;10.10;100.00;98626.25;5033480;28;20242;-72
2023/10/26 01:03:28;;;;;;;8.60;7.77;;;10.70;99.90;;;10.12;100.00;98618.81;5033392;28;20217;-72
2023/10/26 01:05:56;;;;;;;7.70;7.10;;;10.70;99.90;;;10.11;100.00;98619.84;5033361;28;20266;-72
2023/10/26 01:08:24;;;;;;;7.27;6.67;;;10.70;99.90;;;10.09;100.00;98619.25;5033415;28;20218;-71
2023/10/26 01:10:53;;;;;;;8.20;7.50;;;10.70;99.90;;;10.08;100.00;98622.94;5033523;28;20317;-71
2023/10/26 01:13:21;;;;;;;8.43;7.07;;;10.70;99.90;;;10.10;100.00;98618.22;5033161;28;20703;-71
2023/10/26 01:15:49;;;;;;;8.07;7.37;;;10.70;99.90;;;10.10;100.00;98628.91;5033305;28;20261;-71
2023/10/26 01:18:18;;;;;;;8.23;7.43;;;10.70;99.90;;;10.06;100.00;98625.84;5033221;28;20665;-71
2023/10/26 01:20:47;;;;;;;8.20;7.50;;;10.70;99.90;;;10.07;100.00;98631.97;5033282;28;20203;-71
2023/10/26 01:23:16;;;;;;;7.27;6.67;;;10.70;99.90;;;10.05;100.00;98634.06;5033224;28;20211;-71
2023/10/26 01:25:53;;;;;;;8.37;7.57;;;10.70;99.90;;;10.07;100.00;98631.97;5033168;28;20317;-71
2023/10/26 01:28:23;;;;;;;8.80;8.00;;;10.70;99.90;;;10.08;100.00;98628.28;5033246;28;20195;-71
2023/10/26 01:30:52;;;;;;;8.10;7.40;;;10.70;99.90;;;10.09;100.00;98624.59;5033094;28;20592;-71
2023/10/26 01:33:20;;;;;;;8.90;8.10;;;10.70;99.90;;;10.10;100.00;98620.91;5033389;28;20253;-71
2023/10/26 01:35:49;;;;;;;7.77;7.10;;;10.70;99.90;;;10.08;100.00;98622.94;5033047;28;20234;-71
2023/10/26 01:38:18;;;;;;;9.00;8.20;;;10.70;99.90;;;10.08;100.00;98628.28;5033089;28;20206;-71
2023/10/26 01:40:48;;;;;;;9.60;8.80;;;10.70;99.90;;;10.08;100.00;98628.28;5033025;28;20203;-71
2023/10/26 01:43:16;;;;;;;9.90;9.00;;;10.70;99.90;;;10.06;100.00;98617.00;5033040;28;20291;-71
2023/10/26 01:45:45;;;;;;;9.20;8.50;;;10.70;99.90;;;10.06;100.00;98625.84;5032940;28;20226;-71
2023/10/26 01:48:13;;;;;;;9.87;8.97;;;10.70;99.90;;;10.07;100.00;98623.97;5032972;28;20242;-71
2023/10/26 01:50:41;;;;;;;9.37;8.63;;;10.70;99.90;;;10.05;100.00;98632.22;5032919;28;20238;-71
2023/10/26 01:53:09;;;;;;;9.03;8.23;;;10.60;99.90;;;10.08;100.00;98617.59;5032968;28;20249;-71
2023/10/26 01:55:38;;;;;;;9.43;8.63;;;10.70;99.90;;;10.00;100.00;98628.53;5032851;28;20233;-71
2023/10/26 01:58:07;;;;;;;9.53;8.63;;;10.60;99.90;;;9.98;100.00;98614.53;5034092;28;20215;-71
2023/10/26 02:00:35;;;;;;;9.40;8.50;;;10.60;99.90;;;10.00;100.00;98620.50;5036254;28;20651;-71
2023/10/26 02:03:03;;;;;;;9.43;8.60;;;10.60;99.90;;;10.00;100.00;98617.84;5036545;28;20211;-71
2023/10/26 02:05:31;;;;;;;10.37;9.47;;;10.60;99.90;;;9.99;100.00;98613.50;5036444;28;20317;-71
2023/10/26 02:07:59;;;;;;;10.70;9.80;;;10.60;99.90;;;10.02;100.00;98610.41;5036137;28;20206;-71
2023/10/26 02:10:30;;;;;;;11.17;10.17;;;10.60;99.90;;;10.05;100.00;98615.34;5036330;28;20294;-71
2023/10/26 02:12:59;;;;;;;9.83;9.03;;;10.70;99.90;;;10.03;100.00;98620.88;5036186;28;20246;-71
2023/10/26 02:15:27;;;;;;;11.40;10.40;;;10.70;99.90;;;9.98;100.00;98614.53;5036224;28;20258;-71
2023/10/26 02:17:55;;;;;;;10.70;9.77;;;10.60;99.90;;;10.00;100.00;98618.63;5035980;28;20242;-71
2023/10/26 02:20:24;;;;;;;11.13;10.17;;;10.60;99.90;;;10.02;100.00;98615.75;5035864;28;20661;-71
2023/10/26 02:22:52;;;;;;;10.63;9.57;;;10.60;99.90;;;10.07;100.00;98615.94;5036173;28;20296;-71
2023/10/26 02:25:20;;;;;;;9.90;9.10;;;10.70;99.90;;;10.07;100.00;98613.28;5036373;28;20322;-71
2023/10/26 02:27:49;;;;;;;12.63;11.33;;;10.70;99.90;;;10.06;100.00;98620.50;5036123;28;20670;-71
2023/10/26 02:30:18;;;;;;;11.33;10.33;;;10.70;99.90;;;10.06;100.00;98617.81;5035986;28;20203;-71
2023/10/26 02:32:47;;;;;;;10.83;9.83;;;10.70;99.90;;;10.04;100.00;98619.88;5036502;28;20233;-71
2023/10/26 02:35:16;;;;;;;8.57;7.80;;;10.70;99.90;;;10.03;100.00;98625.44;5035561;28;20231;-71
2023/10/26 02:37:44;;;;;;;11.87;10.77;;;10.70;99.90;;;10.05;100.00;98626.03;5035900;28;20246;-71
2023/10/26 02:40:12;;;;;;;12.17;11.07;;;10.70;99.90;;;10.07;100.00;98623.97;5035525;28;20206;-71
2023/10/26 02:42:41;;;;;;;12.07;10.97;;;10.70;99.90;;;10.07;100.00;98634.66;5035799;28;20257;-71
2023/10/26 02:45:10;;;;;;;10.40;9.50;;;10.70;99.90;;;10.09;100.00;98636.13;5035682;28;20222;-71
2023/10/26 02:47:39;;;;;;;13.13;11.83;;;10.70;99.90;;;10.10;100.00;98631.59;5035635;28;20731;-71
2023/10/26 02:50:09;;;;;;;12.80;11.40;;;10.80;99.90;;;10.09;100.00;98629.94;5035640;28;20206;-71
2023/10/26 02:52:38;;;;;;;12.13;11.00;;;10.70;99.90;;;10.09;100.00;98629.94;5036087;28;20226;-71
2023/10/26 02:55:07;;;;;;;12.60;11.40;;;10.70;99.90;;;10.11;100.00;98633.22;5035155;28;20714;-71
2023/10/26 02:57:35;;;;;;;12.60;11.40;;;10.70;99.90;;;10.12;100.00;98629.53;5035542;28;20202;-71
2023/10/26 03:00:05;;;;;;;13.80;12.40;;;10.70;99.90;;;10.09;100.00;98644.13;5035535;28;20233;-71
2023/10/26 03:02:34;;;;;;;12.70;11.60;;;10.70;99.90;;;10.09;100.00;98640.63;5035132;28;20727;-71
2023/10/26 03:05:04;;;;;;;12.50;11.40;;;10.70;99.90;;;10.10;100.00;98636.94;5035371;28;20248;-71
2023/10/26 03:07:33;;;;;;;13.53;12.10;;;10.70;99.90;;;10.07;100.00;98637.34;5035067;28;20723;-71
2023/10/26 03:10:02;;;;;;;11.87;10.87;;;10.70;99.90;;;10.07;100.00;98642.69;5034289;28;20214;-71
2023/10/26 03:12:30;;;;;;;12.90;11.67;;;10.70;99.90;;;10.08;100.00;98638.97;5034857;28;20636;-71
2023/10/26 03:14:58;;;;;;;13.17;11.77;;;10.70;99.90;;;10.06;100.00;98635.72;5035056;28;20231;-71
2023/10/26 03:17:26;;;;;;;10.70;9.80;;;10.70;99.90;;;10.08;100.00;98645.16;5035120;28;20202;-71
2023/10/26 03:19:54;;;;;;;12.83;11.63;;;10.70;99.90;;;10.04;100.00;98637.75;5035097;28;20217;-71
2023/10/26 03:22:24;;;;;;;12.97;11.67;;;10.70;99.90;;;10.06;100.00;98638.38;5034745;28;20297;-71
2023/10/26 03:24:52;;;;;;;13.20;11.90;;;10.70;99.90;;;10.03;100.00;98638.81;5034904;28;20294;-71
2023/10/26 03:27:20;;;;;;;12.00;10.90;;;10.70;99.90;;;10.04;100.00;98637.75;5034458;28;20633;-71
2023/10/26 03:29:48;;;;;;;12.83;11.53;;;10.70;99.90;;;10.02;100.00;98626.44;5034810;28;20202;-71
2023/10/26 03:32:17;;;;;;;12.97;11.63;;;10.70;99.90;;;10.03;100.00;98636.13;5034804;28;20237;-71
2023/10/26 03:34:45;;;;;;;12.07;10.87;;;10.60;99.90;;;10.03;100.00;98628.09;5034750;28;20261;-71
2023/10/26 03:37:13;;;;;;;13.13;11.77;;;10.70;99.90;;;10.00;100.00;98628.53;5035038;28;20202;-71
2023/10/26 03:39:43;;;;;;;12.73;11.53;;;10.60;99.90;;;10.03;100.00;98628.09;5035615;28;20211;-71
2023/10/26 03:42:11;;;;;;;13.23;11.83;;;10.60;99.90;;;10.02;100.00;98637.16;5034738;28;20206;-71
2023/10/26 03:44:39;;;;;;;12.27;11.17;;;10.60;99.90;;;10.02;100.00;98639.81;5034532;28;20272;-71
2023/10/26 03:47:07;;;;;;;13.57;12.20;;;10.60;99.90;;;9.98;100.00;98643.94;5034645;28;20298;-71
2023/10/26 03:49:36;;;;;;;13.83;12.53;;;10.60;99.90;;;9.94;100.00;98642.69;5034512;28;20257;-71
2023/10/26 03:52:05;;;;;;;14.40;12.67;;;10.60;99.90;;;9.93;100.00;98638.41;5034437;28;20226;-71
2023/10/26 03:54:33;;;;;;;14.17;12.23;;;10.50;99.90;;;9.94;100.00;98643.53;5034400;28;20199;-71
2023/10/26 03:57:03;;;;;;;13.53;12.23;;;10.60;99.90;;;9.92;100.00;98642.09;5034403;28;20214;-71
2023/10/26 03:59:31;;;;;;;14.00;12.60;;;10.50;99.90;;;9.93;100.00;98638.41;5034344;28;20213;-71
2023/10/26 04:01:59;;;;;;;14.43;13.03;;;10.60;99.90;;;9.94;100.00;98648.03;5034279;28;20207;-71
2023/10/26 04:04:27;;;;;;;13.33;12.03;;;10.50;99.90;;;9.94;100.00;98642.69;5034252;28;20261;-71
2023/10/26 04:06:56;;;;;;;14.17;12.87;;;10.50;99.90;;;9.91;100.00;98646.63;5034149;28;20235;-71
2023/10/26 04:09:24;;;;;;;13.23;11.83;;;10.50;99.90;;;9.91;100.00;98649.28;5034215;28;20294;-71
2023/10/26 04:11:52;;;;;;;12.93;11.73;;;10.50;99.90;;;9.90;100.00;98647.63;5033885;28;20321;-71
2023/10/26 04:14:22;;;;;;;13.03;11.83;;;10.50;99.90;;;9.91;100.00;98651.13;5034127;28;20283;-71
2023/10/26 04:16:50;;;;;;;12.23;11.03;;;10.50;99.90;;;9.92;100.00;98647.44;5033994;28;20226;-71
2023/10/26 04:19:18;;;;;;;12.60;11.40;;;10.50;99.90;;;9.92;100.00;98645.59;5033974;28;20207;-71
2023/10/26 04:21:46;;;;;;;11.23;10.13;;;10.60;99.90;;;9.89;100.00;98651.34;5033754;28;20238;-71
2023/10/26 04:24:15;;;;;;;11.43;10.33;;;10.50;99.90;;;9.92;100.00;98648.28;5033913;28;20300;-71
2023/10/26 04:26:43;;;;;;;12.20;11.00;;;10.50;99.90;;;9.91;100.00;98651.13;5033479;28;20653;-71
2023/10/26 04:29:11;;;;;;;11.30;10.27;;;10.50;99.90;;;9.93;100.00;98646.41;5033843;28;20210;-71
2023/10/26 04:31:41;;;;;;;10.83;9.77;;;10.50;99.90;;;9.89;100.00;98655.88;5033777;28;20207;-71
2023/10/26 04:34:09;;;;;;;11.50;10.00;;;10.50;99.90;;;9.90;100.00;98646.81;5034065;28;20213;-71
2023/10/26 04:36:37;;;;;;;10.57;9.50;;;10.50;99.90;;;9.94;100.00;98664.09;5033637;28;20227;-71
2023/10/26 04:39:08;;;;;;;9.90;8.93;;;10.50;99.90;;;9.95;100.00;98657.72;5033737;28;20249;-71
2023/10/26 04:41:36;;;;;;;9.43;8.53;;;10.60;99.90;;;9.91;100.00;98659.16;5033715;28;20187;-71
2023/10/26 04:44:06;;;;;;;9.90;9.00;;;10.50;99.90;;;9.91;100.00;98665.31;5033642;28;20202;-71
2023/10/26 04:46:34;;;;;;;9.10;8.20;;;10.60;99.90;;;9.97;100.00;98655.66;5033576;28;20231;-71
2023/10/26 04:49:03;;;;;;;8.90;8.10;;;10.60;99.90;;;9.98;100.00;98659.97;5033280;28;20305;-71
2023/10/26 04:51:32;;;;;;;9.33;8.43;;;10.60;99.90;;;9.98;100.00;98654.63;5033532;28;20202;-71
2023/10/26 04:54:00;;;;;;;8.67;7.87;;;10.60;99.90;;;9.99;100.00;98658.94;5033488;28;20632;-71
2023/10/26 04:56:28;;;;;;;8.47;7.67;;;10.60;99.90;;;10.00;100.00;98656.06;5033416;28;20233;-71
2023/10/26 04:58:55;;;;;;;7.97;7.27;;;10.60;99.90;;;10.01;100.00;98656.88;5033461;28;20202;-71
2023/10/26 05:01:23;;;;;;;7.60;6.90;;;10.70;99.90;;;9.99;100.00;98650.94;5033142;28;20645;-71
2023/10/26 05:03:53;;;;;;;7.10;6.40;;;10.60;99.90;;;9.98;100.00;98652.78;5033166;28;20202;-71
2023/10/26 05:06:22;;;;;;;7.00;6.40;;;10.60;99.90;;;9.95;100.00;98658.53;5033315;28;20337;-71
2023/10/26 05:08:51;;;;;;;6.73;6.13;;;10.60;99.90;;;9.93;100.00;98663.25;5033376;28;20218;-71
2023/10/26 05:11:20;;;;;;;6.30;5.70;;;10.60;99.90;;;9.92;100.00;98666.16;5033397;28;20209;-71
2023/10/26 05:13:52;;;;;;;5.43;4.93;;;10.50;99.90;;;9.92;100.00;98666.97;5033090;28;20277;-71
2023/10/26 05:16:20;;;;;;;4.87;4.47;;;10.60;99.90;;;9.90;100.00;98671.69;5033248;28;20230;-71
2023/10/26 05:18:48;;;;;;;5.43;4.93;;;10.50;99.90;;;9.88;100.00;98668.41;5033315;28;20202;-71
2023/10/26 05:21:17;;;;;;;5.43;4.93;;;10.50;99.90;;;9.87;100.00;98673.94;5033226;28;20210;-71
2023/10/26 05:23:47;;;;;;;5.70;5.20;;;10.50;99.90;;;9.91;100.00;98680.53;5032896;28;20646;-71
2023/10/26 05:26:15;;;;;;;5.60;5.10;;;10.50;99.90;;;9.92;100.00;98677.66;5033229;28;20315;-71
2023/10/26 05:28:44;;;;;;;5.10;4.70;;;10.50;99.90;;;9.92;100.00;98676.84;5032892;28;20621;-71
2023/10/26 05:31:12;;;;;;;5.37;4.90;;;10.60;99.90;;;9.95;100.00;98679.09;5033163;28;20246;-71
2023/10/26 05:33:41;;;;;;;4.63;4.23;;;10.60;99.90;;;9.90;100.00;98682.38;5035310;28;20322;-71
2023/10/26 05:36:09;;;;;;;5.00;4.53;;;10.60;99.90;;;9.90;100.00;98684.22;5036644;28;20642;-71
2023/10/26 05:38:38;;;;;;;4.27;3.87;;;10.50;99.90;;;9.87;100.00;98685.47;5036967;28;20238;-71
2023/10/26 05:41:07;;;;;;;4.17;3.77;;;10.50;99.90;;;9.86;100.00;98683.03;5036960;28;20306;-71
2023/10/26 05:43:35;;;;;;;4.23;3.80;;;10.50;99.90;;;9.89;100.00;98682.59;5036628;28;20665;-71
2023/10/26 05:46:05;;;;;;;5.13;4.00;;;10.50;99.90;;;9.92;100.00;98684.88;5036830;28;20280;-71
2023/10/26 05:48:34;;;;;;;4.27;3.93;;;10.50;99.90;;;9.91;100.00;98686.72;5036808;28;20203;-72
2023/10/26 05:51:02;;;;;;;4.23;3.90;;;10.50;99.90;;;9.92;100.00;98682.19;5036755;28;20213;-72
2023/10/26 05:53:30;;;;;;;4.80;3.83;;;10.50;99.90;;;9.91;100.00;98680.53;5036633;28;20231;-72
2023/10/26 05:55:59;;;;;;;4.70;4.30;;;10.50;99.90;;;9.89;100.00;98688.78;5036588;28;20259;-72
2023/10/26 05:58:29;;;;;;;5.03;4.63;;;10.50;99.90;;;9.87;100.00;98690.00;5036620;28;20218;-72
2023/10/26 06:00:57;;;;;;;5.53;5.03;;;10.50;99.90;;;9.87;100.00;98682.78;5036529;28;20211;-72
2023/10/26 06:03:26;;;;;;;5.77;5.17;;;10.50;99.90;;;9.87;100.00;98687.31;5036375;28;20289;-72
2023/10/26 06:05:59;;;;;;;6.30;5.70;;;10.50;99.90;;;9.82;100.00;98687.13;5036260;28;20743;-72
2023/10/26 06:08:28;;;;;;;7.00;6.30;;;10.40;99.90;;;9.83;100.00;98694.13;5036713;28;20194;-72
2023/10/26 06:10:57;;;;;;;6.83;6.23;;;10.40;99.90;;;9.78;100.00;98694.72;5036711;28;20310;-72
2023/10/26 06:13:26;;;;;;;7.10;6.40;;;10.40;99.90;;;9.82;100.00;98703.16;5036050;28;20261;-72
2023/10/26 06:15:55;;;;;;;6.70;6.00;;;10.50;99.90;;;9.84;100.00;98703.75;5036039;28;20226;-72
2023/10/26 06:18:24;;;;;;;6.47;5.77;;;10.50;99.90;;;9.79;100.00;98707.06;5036056;28;20214;-72
2023/10/26 06:20:58;;;;;;;6.93;6.33;;;10.40;99.90;;;9.83;100.00;98704.81;5036536;28;20213;-72
2023/10/26 06:23:28;;;;;;;6.70;5.50;;;10.50;99.90;;;9.85;100.00;98714.25;5036487;28;20213;-72
2023/10/26 06:25:58;;;;;;;6.37;5.87;;;10.50;99.90;;;9.86;100.00;98715.09;5036127;28;20235;-72
2023/10/26 06:28:27;;;;;;;5.90;5.40;;;10.50;99.90;;;9.82;100.00;98714.69;5036168;28;20206;-72
2023/10/26 06:31:07;;;;;;;6.10;5.60;;;10.50;99.90;;;9.80;100.00;98711.38;5035739;28;20566;-72
2023/10/26 06:33:35;;;;;;;6.53;5.93;;;10.50;99.90;;;9.83;100.00;98710.16;5035704;28;20642;-72
2023/10/26 06:36:05;;;;;;;5.87;5.33;;;10.50;99.90;;;9.85;100.00;98702.75;5035849;28;20223;-73
2023/10/26 06:38:33;;;;;;;7.17;6.57;;;10.50;99.90;;;9.84;100.00;98711.78;5035891;28;20310;-73
2023/10/26 06:41:01;;;;;;;6.63;5.50;;;10.50;99.90;;;9.82;100.00;98720.03;5035586;28;20199;-73
2023/10/26 06:43:30;;;;;;;5.80;5.30;;;10.50;99.90;;;9.78;100.00;98710.75;5035354;28;20572;-73
2023/10/26 06:46:00;;;;;;;5.80;5.30;;;10.50;99.90;;;9.81;100.00;98718.38;5035756;28;20222;-72
2023/10/26 06:48:29;;;;;;;6.20;5.60;;;10.50;99.90;;;9.80;100.00;98721.22;5036594;28;20206;-73
2023/10/26 06:50:59;;;;;;;6.60;6.00;;;10.40;99.90;;;9.76;100.00;98720.81;5035686;28;20210;-73
2023/10/26 06:53:28;;;;;;;6.43;5.83;;;10.40;99.90;;;9.78;100.00;98726.78;5035562;28;20230;-73
2023/10/26 06:55:57;;;;;;;5.97;5.37;;;10.40;99.90;;;9.71;100.00;98727.81;5035772;28;20233;-73
2023/10/26 06:58:25;;;;;;;6.00;5.50;;;10.30;99.90;;;9.73;100.00;98736.44;5035267;28;20704;-73
2023/10/26 07:00:54;;;;;;;5.50;5.00;;;10.30;99.90;;;9.74;100.00;98730.06;5035567;28;20256;-73
2023/10/26 07:03:24;;;;;;;6.20;5.70;;;10.40;99.90;;;9.77;100.00;98740.34;5035743;28;20218;-73
2023/10/26 07:05:52;;;;;;;6.20;5.53;;;10.40;99.90;;;9.76;100.00;98738.72;5035118;28;20239;-73
2023/10/26 07:08:21;;;;;;;5.53;5.03;;;10.40;99.90;;;9.76;100.00;98733.38;5035015;28;20663;-73
2023/10/26 07:10:49;;;;;;;5.60;5.10;;;10.40;99.90;;;9.72;100.00;98735.63;5035013;28;20214;-73
2023/10/26 07:13:17;;;;;;;6.80;6.10;;;10.40;99.90;;;9.77;100.00;98737.66;5034314;28;20259;-72
2023/10/26 07:15:46;;;;;;;6.57;5.97;;;10.40;99.90;;;9.77;100.00;98740.34;5035406;28;20313;-71
2023/10/26 07:18:15;;;;;;;5.60;5.10;;;10.40;99.90;;;9.81;100.00;98739.75;5034818;28;20751;-70
2023/10/26 07:20:48;;;;;;;5.03;4.53;;;10.50;99.90;;;9.80;100.00;98739.94;5035100;28;20211;-70
2023/10/26 07:23:17;;;;;;;5.00;4.60;;;10.40;99.90;;;9.82;100.00;98733.38;5035110;28;20198;-70
2023/10/26 07:25:46;;;;;;;5.50;4.87;;;10.50;99.90;;;9.83;100.00;98736.88;5034983;28;20234;-70
2023/10/26 07:28:16;;;;;;;4.00;3.70;;;10.50;99.90;;;9.86;100.00;98747.16;5034988;28;20191;-70
2023/10/26 07:30:50;;;;;;;4.37;4.03;;;10.50;99.90;;;9.88;100.00;98745.94;5034946;28;20293;-70
2023/10/26 07:33:19;;;;;;;4.87;4.47;;;10.50;99.90;;;9.91;100.00;98739.34;5034818;28;20281;-70
2023/10/26 07:35:55;;;;;;;4.37;3.97;;;10.50;99.90;;;9.91;100.00;98760.72;5034450;28;20254;-70
2023/10/26 07:38:24;;;;;;;6.03;5.40;;;10.60;99.90;;;9.90;100.00;98757.22;5034797;28;20273;-70
2023/10/26 07:41:04;;;;;;;3.73;3.43;;;10.50;99.90;;;9.88;100.00;98755.78;5034719;28;20183;-70
2023/10/26 07:43:33;;;;;;;3.97;3.50;;;10.50;99.90;;;9.87;100.00;98760.31;5034711;28;20282;-70
2023/10/26 07:46:02;;;;;;;3.83;3.53;;;10.50;99.90;;;9.89;100.00;98762.78;5034238;28;20739;-70
2023/10/26 07:48:31;;;;;;;4.30;4.00;;;10.50;99.90;;;9.91;100.00;98768.75;5034515;28;20214;-70
2023/10/26 07:51:01;;;;;;;3.83;3.53;;;10.50;99.90;;;9.92;100.00;98773.91;5034522;28;20217;-70
2023/10/26 07:53:29;;;;;;;3.80;3.50;;;10.60;99.90;;;9.90;100.00;98764.41;5034407;28;20210;-70
2023/10/26 07:55:57;;;;;;;3.67;3.37;;;10.50;99.90;;;9.92;100.00;98770.41;5034446;28;20333;-70
2023/10/26 07:58:26;;;;;;;3.90;3.60;;;10.50;99.90;;;9.91;100.00;98760.72;5034309;28;20238;-70
2023/10/26 08:00:55;;;;;;;3.57;3.03;;;10.50;99.90;;;9.92;100.00;98778.41;5033800;28;20215;-70
2023/10/26 08:03:25;;;;;;;3.47;3.17;;;10.60;99.90;;;9.96;100.00;98771.63;5034191;28;20630;-70
2023/10/26 08:05:57;;;;;;;4.00;3.57;;;10.60;99.90;;;9.91;100.00;98782.94;5034185;28;20309;-70
2023/10/26 08:08:27;;;;;;;3.37;3.17;;;10.60;99.90;;;9.92;100.00;98781.09;5034082;28;20221;-70
2023/10/26 08:10:55;;;;;;;3.60;3.30;;;10.50;99.90;;;9.95;100.00;98788.69;5033859;28;20665;-70
2023/10/26 08:13:23;;;;;;;3.60;3.30;;;10.50;99.90;;;9.92;100.00;98789.09;5033767;28;20221;-70
2023/10/26 08:15:51;;;;;;;3.30;3.00;;;10.60;99.90;;;9.92;100.00;98789.09;5033963;28;20304;-70
2023/10/26 08:18:42;;;;;;;34.00;27.03;;;10.60;99.90;;;9.94;100.00;98787.03;5033879;28;20203;-70
2023/10/26 08:21:10;;;;;;;3.27;2.90;;;10.50;99.90;;;9.88;100.00;98793.22;5033737;28;20187;-70
2023/10/26 08:23:40;;;;;;;4.00;3.33;;;10.50;99.90;;;9.87;100.00;98792.38;5033643;28;20667;-70
2023/10/26 08:26:10;;;;;;;3.57;3.03;;;10.50;99.90;;;9.88;100.00;98796.72;5033878;28;20311;-70
2023/10/26 08:28:38;;;;;;;3.50;3.00;;;10.50;99.90;;;9.87;100.00;98795.06;5034107;28;20213;-70
2023/10/26 08:31:07;;;;;;;3.40;3.10;;;10.50;99.90;;;9.87;100.00;98802.25;5034090;28;20237;-70
2023/10/26 08:33:35;;;;;;;3.80;3.50;;;10.50;99.90;;;9.87;100.00;98792.38;5033859;28;20214;-70
2023/10/26 08:36:05;;;;;;;3.27;2.80;;;10.50;99.90;;;9.89;100.00;98795.69;5033407;28;20684;-69
2023/10/26 08:38:33;;;;;;;4.17;2.73;;;10.50;99.90;;;9.93;100.00;98796.09;5033422;28;20746;-69
2023/10/26 08:41:04;;;;;;;2.80;2.60;;;10.50;99.90;;;9.93;100.00;98801.47;5033756;28;20269;-69
2023/10/26 08:43:34;;;;;;;2.90;2.70;;;10.60;99.90;;;9.91;100.00;98798.16;5033746;28;20277;-69
2023/10/26 08:46:04;;;;;;;3.50;3.20;;;10.60;99.90;;;9.94;100.00;98803.09;5033627;28;20313;-69
2023/10/26 08:48:38;;;;;;;3.00;2.80;;;10.60;99.90;;;9.97;100.00;98808.00;5033592;28;20194;-69
2023/10/26 08:51:07;;;;;;;2.80;2.60;;;10.60;99.90;;;9.94;100.00;98809.25;5033329;28;20234;-69
2023/10/26 08:53:35;;;;;;;3.33;2.77;;;10.60;99.90;;;9.92;100.00;98803.31;5033511;28;20210;-69
2023/10/26 08:56:09;;;;;;;4.23;2.93;;;10.60;99.90;;;9.93;100.00;98806.81;5033081;28;20226;-70
2023/10/26 08:58:37;;;;;;;2.97;2.60;;;10.60;99.90;;;9.97;100.00;98808.00;5033256;28;20201;-70
2023/10/26 09:01:06;;;;;;;3.03;2.83;;;10.60;99.90;;;9.94;100.00;98803.91;5033175;28;20723;-70
2023/10/26 09:03:36;;;;;;;3.37;3.07;;;10.60;99.90;;;9.97;100.00;98808.00;5032981;28;20695;-70
2023/10/26 09:06:05;;;;;;;3.30;3.00;;;10.60;99.90;;;9.99;100.00;98809.47;5033392;28;20227;-70
2023/10/26 09:08:33;;;;;;;2.97;2.77;;;10.60;99.90;;;9.95;100.00;98804.72;5035497;28;20206;-70
2023/10/26 09:11:04;;;;;;;3.00;2.80;;;10.60;99.90;;;9.94;100.00;98803.91;5037544;28;20298;-70
2023/10/26 09:13:34;;;;;;;2.90;2.60;;;10.60;99.90;;;9.96;100.00;98806.38;5036768;28;20734;-70
2023/10/26 09:16:03;;;;;;;2.77;2.57;;;10.60;99.90;;;9.97;100.00;98800.00;5037375;28;20235;-70
2023/10/26 09:18:33;;;;;;;2.87;2.57;;;10.60;99.90;;;9.97;100.00;98805.34;5037177;28;20206;-70
2023/10/26 09:21:05;;;;;;;3.40;2.67;;;10.60;99.90;;;9.99;100.00;98811.31;5037357;28;20194;-70
2023/10/26 09:23:37;;;;;;;3.10;2.50;;;10.60;99.90;;;10.00;100.00;98812.97;5037242;28;20599;-70
2023/10/26 09:26:07;;;;;;;2.83;2.50;;;10.60;99.90;;;10.01;100.00;98811.94;5037242;28;20218;-70
2023/10/26 09:28:52;;;;;;;3.37;2.60;;;10.70;99.90;;;10.01;100.00;98803.91;5036941;28;20244;-70
2023/10/26 09:31:20;;;;;;;3.47;2.80;;;10.60;99.90;;;10.01;100.00;98803.91;5037207;28;20201;-70
2023/10/26 09:33:50;;;;;;;2.83;2.63;;;10.70;99.90;;;10.02;100.00;98803.72;5037132;28;20203;-70
2023/10/26 09:36:21;;;;;;;3.67;2.47;;;10.70;99.90;;;10.04;100.00;98806.19;5035968;28;20284;-70
2023/10/26 09:38:49;;;;;;;3.33;2.60;;;10.70;99.90;;;10.04;100.00;98808.84;5036413;28;20207;-70
2023/10/26 09:41:20;;;;;;;2.53;2.33;;;10.70;99.90;;;10.04;100.00;98808.84;5036881;28;20237;-70
2023/10/26 09:43:49;;;;;;;2.33;2.13;;;10.70;99.90;;;10.05;100.00;98811.34;5037540;28;20203;-70
2023/10/26 09:46:18;;;;;;;3.83;2.20;;;10.70;99.90;;;10.05;100.00;98818.53;5036682;28;20314;-70
2023/10/26 09:48:46;;;;;;;2.70;2.40;;;10.70;99.90;;;10.07;100.00;98825.31;5036835;28;20253;-70
2023/10/26 09:51:16;;;;;;;2.40;2.20;;;10.70;99.90;;;10.08;100.00;98818.13;5036817;28;20207;-70
2023/10/26 09:53:48;;;;;;;2.43;2.23;;;10.70;99.90;;;10.11;100.00;98820.38;5036482;28;20692;-70
2023/10/26 09:56:25;;;;;;;3.20;2.30;;;10.70;99.90;;;10.10;100.00;98829.44;5036319;28;20241;-70
2023/10/26 09:58:56;;;;;;;2.80;2.00;;;10.80;99.90;;;10.07;100.00;98829.84;5036705;28;20281;-70
2023/10/26 10:01:33;;;;;;;2.10;1.90;;;10.70;99.90;;;10.12;100.00;98832.72;5036333;28;20282;-70
2023/10/26 10:04:03;;;;;;;2.80;2.50;;;10.80;99.90;;;10.11;100.00;98831.06;5036613;28;20191;-70
2023/10/26 10:06:48;;;;;;;2.80;2.20;;;10.80;99.90;;;10.13;100.00;98831.72;5036416;28;20227;-70
2023/10/26 10:09:19;;;;;;;2.47;2.00;;;10.80;99.90;;;10.15;100.00;98833.19;5036475;28;20282;-70
2023/10/26 10:12:21;;;;;;;3.00;2.23;;;10.80;99.90;;;10.16;100.00;98836.69;5036112;28;20250;-70
2023/10/26 10:15:00;;;;;;;2.10;1.90;;;10.80;99.90;;;10.18;100.00;98834.63;5035901;28;20720;-70
2023/10/26 10:18:13;;;;;;;1.97;1.87;;;10.80;99.90;;;10.21;100.00;98836.88;5036597;28;20206;-70
2023/10/26 10:20:42;;;;;;;3.60;1.80;;;10.90;99.90;;;10.21;100.00;98836.88;5036207;28;20249;-70
2023/10/26 10:23:29;;;;;;;3.30;2.13;;;10.90;99.90;;;10.23;100.00;98828.66;5036382;28;20292;-70